Time;durP1;ratioP1;P1;durP2;ratioP2;P2;SDS_P1;SDS_P2;PMS_P1;PMS_P2;Temp;Humidity;BMP_temperature;BMP_pressure;BME280_temperature;BME280_humidity;BME280_pressure;Samples;Min_cycle;Max_cycle;Signal;HPM_P1;HPM_P2
2023/10/31 00:00:30;;;;;;;3.80;3.40;;;;;;;;;;5035827;28;20211;-69
2023/10/31 00:02:58;;;;;;;4.73;3.47;;;;;;;;;;5032456;28;20207;-69
2023/10/31 00:05:26;;;;;;;3.73;2.90;;;;;;;;;;5030447;28;20564;-69
2023/10/31 00:07:55;;;;;;;4.17;3.10;;;;;;;;;;5040476;28;20207;-69
2023/10/31 00:10:23;;;;;;;6.03;3.57;;;;;;;;;;5039717;28;20200;-69
2023/10/31 00:12:51;;;;;;;4.27;3.33;;;;;;;;;;5027864;28;20204;-69
2023/10/31 00:15:19;;;;;;;6.50;3.70;;;;;;;;;;5020876;28;20228;-69
2023/10/31 00:17:48;;;;;;;7.43;3.20;;;;;;;;;;5020567;28;20208;-69
2023/10/31 00:20:17;;;;;;;3.47;3.17;;;;;;;;;;5020571;28;20215;-69
2023/10/31 00:22:46;;;;;;;4.60;3.40;;;;;;;;;;5020355;28;20208;-69
2023/10/31 00:25:14;;;;;;;3.57;2.80;;;;;;;;;;5020494;28;20779;-69
2023/10/31 00:27:42;;;;;;;4.80;3.00;;;;;;;;;;5027046;28;20207;-69
2023/10/31 00:30:11;;;;;;;4.83;2.63;;;;;;;;;;5038620;28;20287;-68
2023/10/31 00:32:39;;;;;;;4.53;3.23;;;;;;;;;;5039354;28;20206;-69
2023/10/31 00:35:10;;;;;;;3.90;3.10;;;;;;;;;;5039412;28;20290;-69
2023/10/31 00:37:39;;;;;;;2.97;2.70;;;;;;;;;;5040175;28;20212;-69
2023/10/31 00:40:10;;;;;;;2.93;2.73;;;;;;;;;;5031644;28;20209;-69
2023/10/31 00:42:40;;;;;;;3.77;2.80;;;;;;;;;;5039376;28;20208;-69
2023/10/31 00:45:09;;;;;;;3.63;2.70;;;;;;;;;;5039065;28;20679;-68
2023/10/31 00:47:37;;;;;;;6.13;3.07;;;;;;;;;;5038115;28;20216;-69
2023/10/31 00:50:05;;;;;;;4.90;2.90;;;;;;;;;;5031389;28;20287;-69
2023/10/31 00:52:35;;;;;;;3.97;2.73;;;;;;;;;;5038566;28;20235;-69
2023/10/31 00:55:03;;;;;;;4.40;3.50;;;;;;;;;;5028539;28;20262;-69
2023/10/31 00:57:31;;;;;;;4.10;2.50;;;;;;;;;;5038597;28;20242;-68
2023/10/31 01:00:00;;;;;;;3.27;2.80;;;;;;;;;;5031128;28;20223;-68
2023/10/31 01:02:28;;;;;;;3.77;2.53;;;;;;;;;;5037335;28;20961;-69
2023/10/31 01:04:56;;;;;;;4.57;3.60;;;;;;;;;;5026402;28;20250;-68
2023/10/31 01:07:24;;;;;;;3.60;2.60;;;;;;;;;;5036850;28;20218;-69
2023/10/31 01:09:53;;;;;;;2.80;2.53;;;;;;;;;;5026347;28;20211;-69
2023/10/31 01:12:22;;;;;;;2.97;2.10;;;;;;;;;;5019462;28;20239;-69
2023/10/31 01:14:50;;;;;;;4.17;2.00;;;;;;;;;;5033311;28;20235;-69
2023/10/31 01:17:18;;;;;;;2.80;2.50;;;;;;;;;;5038359;28;20211;-69
2023/10/31 01:19:46;;;;;;;2.97;2.47;;;;;;;;;;5038495;28;20206;-68
2023/10/31 01:22:14;;;;;;;5.27;2.77;;;;;;;;;;5030196;28;20207;-69
2023/10/31 01:24:42;;;;;;;2.20;2.00;;;;;;;;;;5038436;28;20216;-69
2023/10/31 01:27:12;;;;;;;2.43;2.17;;;;;;;;;;5036983;28;20206;-68
2023/10/31 01:29:40;;;;;;;2.43;2.20;;;;;;;;;;5038223;28;20207;-69
2023/10/31 01:32:08;;;;;;;2.97;2.30;;;;;;;;;;5039102;28;20211;-68
2023/10/31 01:34:48;;;;;;;2.37;2.03;;;;;;;;;;5037674;28;20231;-69
2023/10/31 01:37:19;;;;;;;2.93;2.13;;;;;;;;;;5038363;28;20211;-69
2023/10/31 01:39:47;;;;;;;3.80;2.43;;;;;;;;;;5033447;28;20231;-69
2023/10/31 01:42:16;;;;;;;3.77;2.20;;;;;;;;;;5026737;28;20211;-68
2023/10/31 01:44:45;;;;;;;4.33;2.00;;;;;;;;;;5023902;28;20596;-69
2023/10/31 01:47:13;;;;;;;8.03;2.50;;;;;;;;;;5038017;28;20204;-68
2023/10/31 01:49:41;;;;;;;3.43;2.40;;;;;;;;;;5037068;28;20208;-69
2023/10/31 01:52:10;;;;;;;3.50;2.00;;;;;;;;;;5037858;28;20203;-68
2023/10/31 01:54:38;;;;;;;2.27;1.87;;;;;;;;;;5029104;28;20234;-68
2023/10/31 01:57:06;;;;;;;2.77;1.67;;;;;;;;;;5037979;28;20203;-68
2023/10/31 01:59:36;;;;;;;3.50;1.43;;;;;;;;;;5034436;28;20204;-68
2023/10/31 02:02:04;;;;;;;2.20;1.50;;;;;;;;;;5037850;28;20215;-68
2023/10/31 02:04:33;;;;;;;1.77;1.63;;;;;;;;;;5020136;28;20634;-68
2023/10/31 02:07:01;;;;;;;1.17;1.07;;;;;;;;;;5018773;28;20243;-68
2023/10/31 02:09:30;;;;;;;2.33;1.23;;;;;;;;;;5029693;28;20218;-68
2023/10/31 02:11:58;;;;;;;1.90;1.70;;;;;;;;;;5027991;28;20262;-68
2023/10/31 02:14:26;;;;;;;1.47;1.30;;;;;;;;;;5018317;28;20630;-68
2023/10/31 02:16:55;;;;;;;2.43;1.37;;;;;;;;;;5018521;28;20220;-68
2023/10/31 02:19:23;;;;;;;1.93;1.50;;;;;;;;;;5018625;28;20231;-69
2023/10/31 02:21:53;;;;;;;2.27;2.03;;;;;;;;;;5018368;28;20686;-68
2023/10/31 02:24:21;;;;;;;3.77;1.90;;;;;;;;;;5018432;28;20230;-68
2023/10/31 02:26:49;;;;;;;1.80;1.70;;;;;;;;;;5021035;28;20239;-68
2023/10/31 02:29:17;;;;;;;1.80;1.50;;;;;;;;;;5036184;28;20208;-68
2023/10/31 02:31:46;;;;;;;2.30;1.57;;;;;;;;;;5037980;28;20219;-68
2023/10/31 02:34:15;;;;;;;1.90;1.70;;;;;;;;;;5036942;28;20247;-68
2023/10/31 02:36:43;;;;;;;4.47;1.87;;;;;;;;;;5037077;28;20573;-68
2023/10/31 02:39:12;;;;;;;2.13;1.60;;;;;;;;;;5036972;28;20204;-68
2023/10/31 02:41:40;;;;;;;2.73;2.50;;;;;;;;;;5029882;28;20218;-68
2023/10/31 02:44:09;;;;;;;3.10;1.50;;;;;;;;;;5019801;28;20224;-68
2023/10/31 02:46:38;;;;;;;2.43;1.70;;;;;;;;;;5036849;28;20200;-68
2023/10/31 02:49:08;;;;;;;2.80;1.50;;;;;;;;;;5036828;28;20663;-68
2023/10/31 02:51:37;;;;;;;1.30;1.20;;;;;;;;;;5036775;28;20200;-68
2023/10/31 02:54:05;;;;;;;1.67;1.57;;;;;;;;;;5029244;28;20248;-68
2023/10/31 02:56:35;;;;;;;1.40;1.30;;;;;;;;;;5031433;28;20227;-68
2023/10/31 02:59:03;;;;;;;2.20;1.60;;;;;;;;;;5031475;28;20239;-69
2023/10/31 03:01:31;;;;;;;3.43;1.20;;;;;;;;;;5031594;28;20231;-70
2023/10/31 03:03:59;;;;;;;3.43;1.67;;;;;;;;;;5025645;28;20224;-68
2023/10/31 03:06:28;;;;;;;1.37;1.13;;;;;;;;;;5029588;28;20632;-68
2023/10/31 03:08:56;;;;;;;1.13;1.00;;;;;;;;;;5034454;28;20207;-68
2023/10/31 03:11:24;;;;;;;1.90;1.40;;;;;;;;;;5036825;28;20207;-68
2023/10/31 03:13:53;;;;;;;1.23;1.10;;;;;;;;;;5036507;28;20231;-67
2023/10/31 03:16:22;;;;;;;1.77;1.17;;;;;;;;;;5037305;28;20627;-68
2023/10/31 03:18:50;;;;;;;2.73;1.10;;;;;;;;;;5036932;28;20203;-68
2023/10/31 03:21:18;;;;;;;2.37;1.40;;;;;;;;;;5036269;28;20214;-68
2023/10/31 03:23:48;;;;;;;1.67;1.00;;;;;;;;;;5035536;28;20255;-69
2023/10/31 03:26:16;;;;;;;3.83;1.20;;;;;;;;;;5036516;28;20203;-69
2023/10/31 03:28:44;;;;;;;1.23;1.00;;;;;;;;;;5033714;28;20207;-69
2023/10/31 03:31:14;;;;;;;3.70;0.90;;;;;;;;;;5036244;28;20208;-68
2023/10/31 03:33:43;;;;;;;3.87;1.07;;;;;;;;;;5026489;28;20228;-69
2023/10/31 03:36:11;;;;;;;5.00;1.30;;;;;;;;;;5024291;28;20228;-69
2023/10/31 03:38:39;;;;;;;1.40;1.20;;;;;;;;;;5021838;28;20598;-70
2023/10/31 03:41:07;;;;;;;1.67;1.20;;;;;;;;;;5030930;28;20233;-67
2023/10/31 03:43:35;;;;;;;1.60;1.30;;;;;;;;;;5037018;28;20278;-69
2023/10/31 03:46:04;;;;;;;1.67;1.27;;;;;;;;;;5036456;28;20208;-68
2023/10/31 03:48:33;;;;;;;1.90;1.20;;;;;;;;;;5037285;28;20210;-68
2023/10/31 03:51:02;;;;;;;1.47;1.37;;;;;;;;;;5036141;28;20218;-69
2023/10/31 03:53:30;;;;;;;2.73;1.40;;;;;;;;;;5036337;28;20224;-68
2023/10/31 03:56:02;;;;;;;2.53;1.20;;;;;;;;;;5036356;28;20239;-68
2023/10/31 03:58:30;;;;;;;1.63;1.17;;;;;;;;;;5036105;28;20242;-68
2023/10/31 04:00:58;;;;;;;3.20;1.53;;;;;;;;;;5020052;28;20208;-68
2023/10/31 04:03:26;;;;;;;5.30;1.40;;;;;;;;;;5026531;28;20307;-68
2023/10/31 04:05:56;;;;;;;1.30;1.20;;;;;;;;;;5033568;28;20226;-68
2023/10/31 04:08:24;;;;;;;2.33;1.30;;;;;;;;;;5036139;28;20207;-68
2023/10/31 04:10:53;;;;;;;3.80;1.43;;;;;;;;;;5029124;28;20212;-68
2023/10/31 04:13:21;;;;;;;1.60;1.40;;;;;;;;;;5036978;28;20223;-68
2023/10/31 04:15:49;;;;;;;3.90;1.60;;;;;;;;;;5039247;28;20224;-68
2023/10/31 04:18:17;;;;;;;2.53;1.60;;;;;;;;;;5040464;28;20650;-69
2023/10/31 04:20:45;;;;;;;3.20;1.40;;;;;;;;;;5039172;28;20245;-68
2023/10/31 04:23:15;;;;;;;4.13;1.53;;;;;;;;;;5029822;28;20211;-68
2023/10/31 04:25:43;;;;;;;4.47;1.30;;;;;;;;;;5040330;28;20222;-68
2023/10/31 04:28:13;;;;;;;4.30;1.90;;;;;;;;;;5038553;28;20203;-68
2023/10/31 04:30:41;;;;;;;2.20;1.40;;;;;;;;;;5026275;28;20710;-68
2023/10/31 04:33:09;;;;;;;4.97;1.90;;;;;;;;;;5031896;28;20529;-68
2023/10/31 04:35:37;;;;;;;3.60;1.80;;;;;;;;;;5039411;28;20254;-68
2023/10/31 04:38:05;;;;;;;5.57;1.90;;;;;;;;;;5039374;28;20216;-68
2023/10/31 04:40:35;;;;;;;5.97;1.70;;;;;;;;;;5039451;28;20210;-68
2023/10/31 04:43:03;;;;;;;5.67;1.67;;;;;;;;;;5040252;28;20220;-68
2023/10/31 04:45:31;;;;;;;3.17;1.60;;;;;;;;;;5039054;28;20569;-68
2023/10/31 04:47:59;;;;;;;4.07;1.70;;;;;;;;;;5039756;28;20215;-68
2023/10/31 04:50:28;;;;;;;5.63;1.70;;;;;;;;;;5039211;28;20550;-69
2023/10/31 04:52:56;;;;;;;3.30;1.53;;;;;;;;;;5038172;28;20208;-68
2023/10/31 04:55:24;;;;;;;4.77;1.57;;;;;;;;;;5031012;28;20647;-68
2023/10/31 04:57:54;;;;;;;3.53;1.63;;;;;;;;;;5036642;28;20239;-68
2023/10/31 05:00:22;;;;;;;2.23;1.33;;;;;;;;;;5031012;28;20219;-68
2023/10/31 05:02:50;;;;;;;1.87;1.43;;;;;;;;;;5033983;28;20205;-68
2023/10/31 05:05:19;;;;;;;1.50;1.40;;;;;;;;;;5028843;28;20626;-68
2023/10/31 05:07:47;;;;;;;3.33;2.10;;;;;;;;;;5019348;28;20204;-67
2023/10/31 05:10:15;;;;;;;4.00;1.60;;;;;;;;;;5026928;28;20686;-67
2023/10/31 05:12:44;;;;;;;4.53;1.70;;;;;;;;;;5039146;28;20207;-68
2023/10/31 05:15:13;;;;;;;5.33;1.60;;;;;;;;;;5038004;28;20564;-68
2023/10/31 05:17:42;;;;;;;7.20;1.57;;;;;;;;;;5039336;28;20231;-67
2023/10/31 05:20:10;;;;;;;6.93;1.80;;;;;;;;;;5038934;28;20257;-67
2023/10/31 05:22:38;;;;;;;3.53;1.70;;;;;;;;;;5037394;28;20223;-67
2023/10/31 05:25:07;;;;;;;4.00;1.63;;;;;;;;;;5037654;28;20227;-67
2023/10/31 05:27:35;;;;;;;2.43;1.47;;;;;;;;;;5022321;28;20204;-67
2023/10/31 05:30:04;;;;;;;1.20;1.10;;;;;;;;;;5023926;28;20208;-68
2023/10/31 05:32:33;;;;;;;2.73;1.70;;;;;;;;;;5019041;28;20204;-68
2023/10/31 05:35:02;;;;;;;2.67;1.13;;;;;;;;;;5021757;28;20224;-67
2023/10/31 05:37:30;;;;;;;2.40;1.47;;;;;;;;;;5019222;28;20296;-67
2023/10/31 05:39:58;;;;;;;3.20;1.40;;;;;;;;;;5019713;28;20211;-67
2023/10/31 05:42:27;;;;;;;2.17;1.30;;;;;;;;;;5020883;28;20208;-67
2023/10/31 05:44:56;;;;;;;1.30;1.17;;;;;;;;;;5019058;28;20228;-68
2023/10/31 05:47:24;;;;;;;3.80;1.70;;;;;;;;;;5018640;28;20203;-66
2023/10/31 05:49:54;;;;;;;2.97;1.60;;;;;;;;;;5019285;28;20204;-66
2023/10/31 05:52:22;;;;;;;1.97;1.63;;;;;;;;;;5025107;28;20232;-65
2023/10/31 05:54:50;;;;;;;2.33;1.67;;;;;;;;;;5035235;28;20614;-67
2023/10/31 05:57:18;;;;;;;1.93;1.70;;;;;;;;;;5038779;28;20258;-67
2023/10/31 05:59:47;;;;;;;2.03;1.70;;;;;;;;;;5038887;28;20207;-67
2023/10/31 06:02:15;;;;;;;1.60;1.50;;;;;;;;;;5037539;28;20658;-67
2023/10/31 06:04:43;;;;;;;3.53;2.10;;;;;;;;;;5018885;28;20255;-67
2023/10/31 06:07:13;;;;;;;2.50;1.73;;;;;;;;;;5018495;28;20201;-67
2023/10/31 06:09:51;;;;;;;2.30;1.90;;;;;;;;;;5032441;28;20208;-67
2023/10/31 06:12:28;;;;;;;1.80;1.70;;;;;;;;;;5030276;28;20195;-67
2023/10/31 06:14:58;;;;;;;2.33;1.97;;;;;;;;;;5030340;28;20586;-68
2023/10/31 06:17:30;;;;;;;1.90;1.70;;;;;;;;;;5031471;28;20773;-68
2023/10/31 06:20:17;;;;;;;1.93;1.67;;;;;;;;;;5027076;28;20207;-68
2023/10/31 06:22:49;;;;;;;3.90;1.63;;;;;;;;;;5036290;28;20227;-68
2023/10/31 06:25:20;;;;;;;1.50;1.40;;;;;;;;;;5029709;28;20222;-68
2023/10/31 06:27:53;;;;;;;1.40;1.30;;;;;;;;;;5027451;28;20215;-68
2023/10/31 06:30:24;;;;;;;2.47;1.50;;;;;;;;;;5028071;28;20201;-68
2023/10/31 06:32:57;;;;;;;2.93;1.30;;;;;;;;;;5028491;28;20208;-68
2023/10/31 06:36:00;;;;;;;3.10;1.50;;;;;;;;;;5026129;28;20204;-68
2023/10/31 06:38:47;;;;;;;1.47;1.37;;;;;;;;;;5031637;28;20234;-68
2023/10/31 06:41:42;;;;;;;1.53;1.43;;;;;;;;;;5031868;28;20231;-69
2023/10/31 06:44:32;;;;;;;6.53;2.00;;;;;;;;;;5021301;28;20263;-69
2023/10/31 06:47:01;;;;;;;4.43;2.50;;;;;;;;;;5025339;28;20203;-69
2023/10/31 06:49:30;;;;;;;4.17;1.70;;;;;;;;;;5030209;28;20262;-69
2023/10/31 06:51:59;;;;;;;2.00;1.80;;;;;;;;;;5026889;28;20239;-69
2023/10/31 06:54:30;;;;;;;2.63;2.00;;;;;;;;;;5021308;28;20626;-69
2023/10/31 06:56:58;;;;;;;3.90;1.67;;;;;;;;;;5017834;28;20580;-69
2023/10/31 06:59:26;;;;;;;4.63;2.23;;;;;;;;;;5025945;28;20231;-69
2023/10/31 07:01:54;;;;;;;2.17;2.00;;;;;;;;;;5037350;28;20214;-69
2023/10/31 07:04:23;;;;;;;4.47;1.83;;;;;;;;;;5019321;28;20231;-69
2023/10/31 07:06:56;;;;;;;2.97;2.17;;;;;;;;;;5017985;28;20232;-69
2023/10/31 07:09:27;;;;;;;1.70;1.60;;;;;;;;;;5018238;28;20674;-69
2023/10/31 07:11:58;;;;;;;2.70;1.57;;;;;;;;;;5026301;28;20199;-68
2023/10/31 07:14:27;;;;;;;2.70;1.57;;;;;;;;;;5026451;28;20254;-69
2023/10/31 07:16:55;;;;;;;2.00;1.67;;;;;;;;;;5035551;28;20258;-68
2023/10/31 07:19:23;;;;;;;3.00;1.57;;;;;;;;;;5036466;28;20634;-70
2023/10/31 07:21:51;;;;;;;1.70;1.40;;;;;;;;;;5036396;28;20675;-69
2023/10/31 07:24:19;;;;;;;2.73;1.73;;;;;;;;;;5036333;28;20586;-69
2023/10/31 07:26:47;;;;;;;4.43;1.73;;;;;;;;;;5036556;28;20214;-68
2023/10/31 07:29:17;;;;;;;1.40;1.30;;;;;;;;;;5037492;28;20214;-70
2023/10/31 07:31:45;;;;;;;2.93;2.60;;;;;;;;;;5037061;28;20659;-69
2023/10/31 07:34:13;;;;;;;1.50;1.40;;;;;;;;;;5036937;28;20223;-69
2023/10/31 07:36:41;;;;;;;1.93;1.17;;;;;;;;;;5037000;28;20222;-69
2023/10/31 07:39:09;;;;;;;3.40;1.50;;;;;;;;;;5037179;28;20199;-69
2023/10/31 07:41:37;;;;;;;1.90;1.33;;;;;;;;;;5036016;28;20223;-70
2023/10/31 07:44:05;;;;;;;1.40;1.20;;;;;;;;;;5017545;28;20715;-69
2023/10/31 07:46:35;;;;;;;5.63;1.10;;;;;;;;;;5017091;28;20207;-70
2023/10/31 07:49:04;;;;;;;1.10;1.00;;;;;;;;;;5032369;28;20291;-69
2023/10/31 07:51:32;;;;;;;2.37;1.00;;;;;;;;;;5038580;28;20591;-69
2023/10/31 07:54:00;;;;;;;1.00;1.00;;;;;;;;;;5041193;28;20228;-69
2023/10/31 07:56:29;;;;;;;1.20;1.10;;;;;;;;;;5027027;28;20215;-69
2023/10/31 07:58:57;;;;;;;1.70;1.00;;;;;;;;;;5025403;28;20235;-68
2023/10/31 08:01:25;;;;;;;2.10;0.80;;;;;;;;;;5021033;28;20216;-69
2023/10/31 08:03:55;;;;;;;0.93;0.83;;;;;;;;;;5030692;28;20224;-69
2023/10/31 08:06:23;;;;;;;1.17;0.70;;;;;;;;;;5040687;28;20729;-69
2023/10/31 08:08:51;;;;;;;0.73;0.60;;;;;;;;;;5040776;28;20218;-70
2023/10/31 08:11:20;;;;;;;0.90;0.60;;;;;;;;;;5040860;28;20213;-69
2023/10/31 08:13:48;;;;;;;0.60;0.60;;;;;;;;;;5040733;28;20227;-69
2023/10/31 08:16:18;;;;;;;0.90;0.90;;;;;;;;;;5039009;28;20210;-69
2023/10/31 08:18:49;;;;;;;3.40;0.90;;;;;;;;;;5040459;28;20227;-69
2023/10/31 08:21:18;;;;;;;2.20;0.70;;;;;;;;;;5040407;28;20576;-69
2023/10/31 08:23:47;;;;;;;1.43;0.80;;;;;;;;;;5039856;28;20247;-69
2023/10/31 08:26:15;;;;;;;0.47;0.47;;;;;;;;;;5031920;28;20215;-69
2023/10/31 08:28:43;;;;;;;2.37;0.73;;;;;;;;;;5020498;28;20254;-70
2023/10/31 08:31:11;;;;;;;0.53;0.53;;;;;;;;;;5020288;28;20215;-70
2023/10/31 08:33:39;;;;;;;2.93;0.80;;;;;;;;;;5020588;28;20260;-69
2023/10/31 08:36:08;;;;;;;1.17;0.63;;;;;;;;;;5020312;28;20212;-68
2023/10/31 08:38:38;;;;;;;9.50;2.63;;;;;;;;;;5020556;28;20227;-69
2023/10/31 08:41:06;;;;;;;2.53;1.20;;;;;;;;;;5029940;28;20290;-69
2023/10/31 08:43:34;;;;;;;2.43;1.37;;;;;;;;;;5040209;28;20254;-70
2023/10/31 08:46:02;;;;;;;1.27;0.83;;;;;;;;;;5040171;28;20215;-69
2023/10/31 08:48:31;;;;;;;1.70;0.87;;;;;;;;;;5039797;28;20662;-69
2023/10/31 08:50:59;;;;;;;1.37;0.90;;;;;;;;;;5039858;28;20281;-69
2023/10/31 08:53:27;;;;;;;1.80;0.77;;;;;;;;;;5035001;28;20236;-69
2023/10/31 08:55:57;;;;;;;4.93;0.70;;;;;;;;;;5020357;28;20208;-69
2023/10/31 08:58:25;;;;;;;0.80;0.70;;;;;;;;;;5021107;28;20318;-69
2023/10/31 09:00:53;;;;;;;2.23;0.60;;;;;;;;;;5032646;28;20211;-69
2023/10/31 09:03:21;;;;;;;1.33;0.53;;;;;;;;;;5029438;28;20757;-69
2023/10/31 09:05:49;;;;;;;1.37;1.23;;;;;;;;;;5037694;28;20207;-68
2023/10/31 09:08:18;;;;;;;0.70;0.60;;;;;;;;;;5022795;28;20205;-69
2023/10/31 09:10:46;;;;;;;0.70;0.70;;;;;;;;;;5019688;28;20219;-68
2023/10/31 09:13:16;;;;;;;7.57;1.97;;;;;;;;;;5024548;28;20608;-68
2023/10/31 09:15:45;;;;;;;2.17;0.90;;;;;;;;;;5039163;28;20208;-69
2023/10/31 09:18:17;;;;;;;1.97;0.60;;;;;;;;;;5039754;28;20244;-69
2023/10/31 09:20:46;;;;;;;4.00;1.47;;;;;;;;;;5039504;28;20207;-69
2023/10/31 09:23:14;;;;;;;45.57;9.60;;;;;;;;;;5039236;28;20211;-68
2023/10/31 09:25:42;;;;;;;12.73;2.73;;;;;;;;;;5024113;28;20208;-69
2023/10/31 09:28:10;;;;;;;2.90;1.07;;;;;;;;;;5019622;28;20208;-69
2023/10/31 09:30:40;;;;;;;0.80;0.80;;;;;;;;;;5022022;28;20226;-69
2023/10/31 09:33:11;;;;;;;0.70;0.60;;;;;;;;;;5029870;28;20231;-68
2023/10/31 09:35:40;;;;;;;1.43;0.70;;;;;;;;;;5019313;28;20287;-69
2023/10/31 09:38:08;;;;;;;5.13;0.90;;;;;;;;;;5022077;28;20207;-69
2023/10/31 09:40:37;;;;;;;1.67;0.80;;;;;;;;;;5024581;28;20257;-69
2023/10/31 09:43:05;;;;;;;0.50;0.50;;;;;;;;;;5024651;28;20215;-68
2023/10/31 09:45:34;;;;;;;1.37;0.83;;;;;;;;;;5018664;28;20291;-69
2023/10/31 09:48:03;;;;;;;3.10;0.70;;;;;;;;;;5019016;28;20212;-69
2023/10/31 09:50:32;;;;;;;0.60;0.60;;;;;;;;;;5028048;28;20256;-68
2023/10/31 09:53:01;;;;;;;1.60;0.80;;;;;;;;;;5030367;28;20242;-68
2023/10/31 09:55:29;;;;;;;2.90;0.77;;;;;;;;;;5018930;28;20247;-69
2023/10/31 09:57:57;;;;;;;4.00;0.87;;;;;;;;;;5018566;28;20240;-67
2023/10/31 10:00:25;;;;;;;4.40;1.73;;;;;;;;;;5019041;28;20213;-67
2023/10/31 10:02:55;;;;;;;0.50;0.50;;;;;;;;;;5023860;28;20211;-66
2023/10/31 10:05:26;;;;;;;1.33;1.00;;;;;;;;;;5018685;28;20263;-68
2023/10/31 10:07:56;;;;;;;1.30;0.77;;;;;;;;;;5020177;28;20287;-66
2023/10/31 10:10:24;;;;;;;1.13;0.50;;;;;;;;;;5018202;28;20237;-67
2023/10/31 10:12:53;;;;;;;50.73;17.90;;;;;;;;;;5017232;28;20675;-64
2023/10/31 10:15:21;;;;;;;43.53;20.37;;;;;;;;;;5018423;28;20268;-63
2023/10/31 10:17:50;;;;;;;28.27;14.83;;;;;;;;;;5018303;28;20215;-63
2023/10/31 10:20:19;;;;;;;18.70;11.67;;;;;;;;;;5018010;28;20232;-63
2023/10/31 10:22:49;;;;;;;21.93;10.33;;;;;;;;;;5020901;28;20294;-63
2023/10/31 10:25:18;;;;;;;15.37;7.70;;;;;;;;;;5037512;28;20251;-63
2023/10/31 10:27:47;;;;;;;201.53;69.23;;;;;;;;;;5037550;28;20211;-63
2023/10/31 10:30:15;;;;;;;74.30;28.90;;;;;;;;;;5036105;28;20205;-63
2023/10/31 10:32:44;;;;;;;45.80;18.13;;;;;;;;;;5023348;28;20203;-63
2023/10/31 10:35:12;;;;;;;30.03;13.40;;;;;;;;;;5034790;28;20714;-63
2023/10/31 10:38:05;;;;;;;17.23;9.10;;;;;;;;;;5019141;28;20212;-63
2023/10/31 10:40:34;;;;;;;19.60;9.63;;;;;;;;;;5021416;28;20695;-63
2023/10/31 10:43:08;;;;;;;11.63;5.73;;;;;;;;;;5018258;28;20219;-63
2023/10/31 10:45:38;;;;;;;9.00;3.63;;;;;;;;;;5018073;28;20216;-63
2023/10/31 10:48:09;;;;;;;12.90;6.10;;;;;;;;;;5018089;28;20552;-63
2023/10/31 10:50:42;;;;;;;11.67;4.97;;;;;;;;;;5018145;28;20231;-63
2023/10/31 10:53:18;;;;;;;8.50;4.60;;;;;;;;;;5017830;28;20208;-63
2023/10/31 10:55:47;;;;;;;3.80;1.47;;;;;;;;;;5018213;28;20215;-63
2023/10/31 10:58:21;;;;;;;3.83;2.30;;;;;;;;;;5032195;28;20250;-63
2023/10/31 11:00:49;;;;;;;7.90;4.20;;;;;;;;;;5037543;28;20228;-63
2023/10/31 11:03:18;;;;;;;6.47;2.40;;;;;;;;;;5026918;28;20235;-63
2023/10/31 11:05:46;;;;;;;3.73;1.43;;;;;;;;;;5017784;28;20602;-63
2023/10/31 11:08:16;;;;;;;5.27;1.83;;;;;;;;;;5022417;28;20200;-65
2023/10/31 11:10:46;;;;;;;1.13;1.03;;;;;;;;;;5035480;28;20282;-65
2023/10/31 11:13:15;;;;;;;0.60;0.60;;;;;;;;;;5034874;28;20211;-65
2023/10/31 11:15:43;;;;;;;1.00;0.90;;;;;;;;;;5034343;28;20215;-67
2023/10/31 11:18:11;;;;;;;1.07;0.70;;;;;;;;;;5036635;28;20217;-66
2023/10/31 11:20:40;;;;;;;2.50;0.70;;;;;;;;;;5028317;28;20235;-68
2023/10/31 11:23:08;;;;;;;1.57;0.90;;;;;;;;;;5018946;28;20208;-67
2023/10/31 11:25:43;;;;;;;1.07;0.60;;;;;;;;;;5021736;28;20286;-67
2023/10/31 11:28:13;;;;;;;2.33;0.70;;;;;;;;;;5029860;28;20203;-68
2023/10/31 11:30:43;;;;;;;1.23;0.57;;;;;;;;;;5030473;28;20208;-68
2023/10/31 11:33:21;;;;;;;2.83;0.87;;;;;;;;;;5039384;28;20223;-68
2023/10/31 11:35:51;;;;;;;6.90;0.97;;;;;;;;;;5036655;28;20215;-69
2023/10/31 11:38:29;;;;;;;0.70;0.53;;;;;;;;;;5041091;28;20677;-69
2023/10/31 11:41:03;;;;;;;1.17;0.77;;;;;;;;;;5035477;28;20224;-68
2023/10/31 11:43:53;;;;;;;0.77;0.77;;;;;;;;;;5031945;28;20595;-69
2023/10/31 11:46:24;;;;;;;0.73;0.60;;;;;;;;;;5026958;28;20660;-67
2023/10/31 11:48:54;;;;;;;0.60;0.60;;;;;;;;;;5034064;28;20200;-68
2023/10/31 11:51:22;;;;;;;1.00;0.70;;;;;;;;;;5030236;28;20230;-68
2023/10/31 11:53:51;;;;;;;0.50;0.50;;;;;;;;;;5031411;28;20228;-68
2023/10/31 11:56:21;;;;;;;0.70;0.60;;;;;;;;;;5032361;28;20212;-68
2023/10/31 11:59:03;;;;;;;1.73;0.93;;;;;;;;;;5031453;28;20240;-67
2023/10/31 12:01:31;;;;;;;1.40;0.70;;;;;;;;;;5029031;28;20194;-69
2023/10/31 12:04:00;;;;;;;2.13;0.97;;;;;;;;;;5030671;28;20231;-67
2023/10/31 12:06:30;;;;;;;1.40;0.90;;;;;;;;;;5036173;28;20196;-68
2023/10/31 12:09:00;;;;;;;1.87;0.80;;;;;;;;;;5030750;28;20563;-67
2023/10/31 12:11:30;;;;;;;2.07;1.00;;;;;;;;;;5031308;28;20195;-68
2023/10/31 12:13:59;;;;;;;2.73;1.00;;;;;;;;;;5030674;28;20591;-68
2023/10/31 12:16:28;;;;;;;1.83;0.93;;;;;;;;;;5031323;28;20206;-68
2023/10/31 12:19:15;;;;;;;2.73;0.87;;;;;;;;;;5029825;28;20196;-68
2023/10/31 12:22:00;;;;;;;4.07;1.00;;;;;;;;;;5031648;28;20674;-68
2023/10/31 12:24:29;;;;;;;4.73;1.43;;;;;;;;;;5030323;28;20309;-69
2023/10/31 12:27:02;;;;;;;2.23;0.90;;;;;;;;;;5028139;28;20215;-67
2023/10/31 12:29:30;;;;;;;1.53;0.60;;;;;;;;;;5020453;28;20211;-68
2023/10/31 12:32:00;;;;;;;5.70;1.10;;;;;;;;;;5020369;28;20209;-67
2023/10/31 12:34:28;;;;;;;2.50;0.60;;;;;;;;;;5039170;28;20233;-66
2023/10/31 12:36:59;;;;;;;1.27;0.63;;;;;;;;;;5039959;28;20203;-70
2023/10/31 12:39:27;;;;;;;0.90;0.67;;;;;;;;;;5034073;28;20203;-67
2023/10/31 12:41:56;;;;;;;1.00;0.90;;;;;;;;;;5025438;28;20204;-70
2023/10/31 12:44:27;;;;;;;0.70;0.70;;;;;;;;;;5020028;28;20232;-69
2023/10/31 12:46:56;;;;;;;2.73;0.77;;;;;;;;;;5020096;28;20214;-70
2023/10/31 12:49:28;;;;;;;2.73;0.70;;;;;;;;;;5020079;28;20208;-70
2023/10/31 12:52:00;;;;;;;1.00;0.70;;;;;;;;;;5020199;28;20210;-69
2023/10/31 12:54:29;;;;;;;1.37;0.90;;;;;;;;;;5020186;28;20234;-70
2023/10/31 12:57:00;;;;;;;1.57;0.90;;;;;;;;;;5027362;28;20843;-69
2023/10/31 12:59:29;;;;;;;1.70;0.70;;;;;;;;;;5025803;28;20234;-70
2023/10/31 13:01:58;;;;;;;2.30;0.60;;;;;;;;;;5027579;28;20245;-70
2023/10/31 13:04:27;;;;;;;2.03;0.97;;;;;;;;;;5026133;28;20266;-69
2023/10/31 13:06:57;;;;;;;0.90;0.60;;;;;;;;;;5029362;28;20292;-69
2023/10/31 13:09:29;;;;;;;4.83;2.30;;;;;;;;;;5028864;28;20204;-69
2023/10/31 13:11:58;;;;;;;1.90;0.90;;;;;;;;;;5028331;28;20712;-69
2023/10/31 13:14:27;;;;;;;1.13;0.70;;;;;;;;;;5030526;28;20221;-70
2023/10/31 13:16:57;;;;;;;3.30;1.07;;;;;;;;;;5029894;28;20234;-69
2023/10/31 13:19:25;;;;;;;0.77;0.50;;;;;;;;;;5029666;28;20203;-70
2023/10/31 13:21:53;;;;;;;2.80;1.03;;;;;;;;;;5028828;28;20223;-69
2023/10/31 13:24:22;;;;;;;6.23;1.43;;;;;;;;;;5027407;28;20591;-70
2023/10/31 13:26:51;;;;;;;2.37;1.00;;;;;;;;;;5029903;28;20208;-70
2023/10/31 13:29:20;;;;;;;1.73;1.03;;;;;;;;;;5026029;28;20231;-70
2023/10/31 13:31:49;;;;;;;3.87;1.10;;;;;;;;;;5029194;28;20334;-69
2023/10/31 13:34:19;;;;;;;1.13;0.73;;;;;;;;;;5028931;28;20686;-68
2023/10/31 13:36:47;;;;;;;1.13;0.70;;;;;;;;;;5029206;28;20231;-69
2023/10/31 13:39:21;;;;;;;1.03;0.70;;;;;;;;;;5027446;28;20258;-69
2023/10/31 13:41:50;;;;;;;1.10;0.60;;;;;;;;;;5031053;28;20227;-70
2023/10/31 13:44:18;;;;;;;1.67;0.67;;;;;;;;;;5028940;28;20216;-69
2023/10/31 13:46:47;;;;;;;0.60;0.60;;;;;;;;;;5028160;28;20208;-72
2023/10/31 13:49:15;;;;;;;1.23;0.70;;;;;;;;;;5030179;28;20219;-70
2023/10/31 13:51:44;;;;;;;1.20;0.73;;;;;;;;;;5018969;28;20212;-70
2023/10/31 13:54:13;;;;;;;3.00;1.10;;;;;;;;;;5018842;28;20628;-70
2023/10/31 13:56:41;;;;;;;2.63;1.00;;;;;;;;;;5019039;28;20216;-70
2023/10/31 13:59:09;;;;;;;4.57;1.00;;;;;;;;;;5018762;28;20236;-70
2023/10/31 14:01:37;;;;;;;1.97;0.80;;;;;;;;;;5018493;28;20834;-69
2023/10/31 14:04:07;;;;;;;5.10;0.87;;;;;;;;;;5028460;28;20291;-69
2023/10/31 14:06:35;;;;;;;1.80;1.17;;;;;;;;;;5020793;28;20236;-70
2023/10/31 14:09:07;;;;;;;0.77;0.77;;;;;;;;;;5019072;28;20204;-70
2023/10/31 14:11:35;;;;;;;1.30;1.20;;;;;;;;;;5018857;28;20215;-70
2023/10/31 14:14:09;;;;;;;3.73;1.67;;;;;;;;;;5018494;28;20748;-70
2023/10/31 14:16:38;;;;;;;4.83;1.60;;;;;;;;;;5025486;28;20204;-70
2023/10/31 14:19:07;;;;;;;2.13;0.80;;;;;;;;;;5038542;28;20211;-69
2023/10/31 14:21:35;;;;;;;1.33;0.73;;;;;;;;;;5038156;28;20235;-69
2023/10/31 14:24:06;;;;;;;2.37;0.80;;;;;;;;;;5038026;28;20722;-69
2023/10/31 14:26:40;;;;;;;1.27;0.93;;;;;;;;;;5038205;28;20234;-69
2023/10/31 14:29:08;;;;;;;0.83;0.80;;;;;;;;;;5034724;28;20235;-69
2023/10/31 14:31:41;;;;;;;0.87;0.70;;;;;;;;;;5018086;28;20213;-69
2023/10/31 14:34:09;;;;;;;1.20;0.80;;;;;;;;;;5034619;28;20219;-70
2023/10/31 14:36:38;;;;;;;0.90;0.70;;;;;;;;;;5035461;28;20204;-69
2023/10/31 14:39:08;;;;;;;1.30;0.70;;;;;;;;;;5029614;28;20324;-69
2023/10/31 14:41:36;;;;;;;0.90;0.80;;;;;;;;;;5026674;28;20242;-70
2023/10/31 14:44:04;;;;;;;1.53;0.80;;;;;;;;;;5036836;28;20227;-69
2023/10/31 14:46:33;;;;;;;0.53;0.53;;;;;;;;;;5037617;28;20254;-69
2023/10/31 14:49:01;;;;;;;1.47;0.70;;;;;;;;;;5033072;28;20690;-68
2023/10/31 14:51:29;;;;;;;2.03;0.90;;;;;;;;;;5018111;28;20215;-69
2023/10/31 14:53:58;;;;;;;3.63;1.60;;;;;;;;;;5018248;28;20228;-70
2023/10/31 14:56:29;;;;;;;3.27;2.27;;;;;;;;;;5020280;28;20212;-69